createdAt,value
2022-08-07T00:00:25.562Z,100.00
2022-08-07T00:02:53.687Z,100.00
2022-08-07T00:05:21.012Z,100.00
2022-08-07T00:07:58.224Z,100.00
2022-08-07T00:10:29.614Z,100.00
2022-08-07T00:13:00.727Z,100.00
2022-08-07T00:15:38.123Z,100.00
2022-08-07T00:18:18.793Z,100.00
2022-08-07T00:20:47.740Z,100.00
2022-08-07T00:23:14.914Z,100.00
2022-08-07T00:25:52.536Z,100.00
2022-08-07T00:28:25.688Z,100.00
2022-08-07T00:31:01.167Z,100.00
2022-08-07T00:33:32.804Z,100.00
2022-08-07T00:36:00.180Z,100.00
2022-08-07T00:38:31.112Z,100.00
2022-08-07T00:40:59.377Z,100.00
2022-08-07T00:44:00.471Z,100.00
2022-08-07T00:46:12.841Z,100.00
2022-08-07T00:48:42.298Z,100.00
2022-08-07T00:51:10.375Z,100.00
2022-08-07T00:53:38.903Z,100.00
2022-08-07T00:56:17.503Z,100.00
2022-08-07T00:58:47.167Z,100.00
2022-08-07T01:01:16.914Z,100.00
2022-08-07T01:03:55.864Z,100.00
2022-08-07T01:06:25.239Z,100.00
2022-08-07T01:08:53.817Z,100.00
2022-08-07T01:12:09.273Z,100.00
2022-08-07T01:14:09.315Z,100.00
2022-08-07T01:16:37.112Z,100.00
2022-08-07T01:19:18.334Z,100.00
2022-08-07T01:21:48.214Z,100.00
2022-08-07T01:24:18.764Z,100.00
2022-08-07T01:26:51.989Z,100.00
2022-08-07T01:29:22.361Z,100.00
2022-08-07T01:31:49.997Z,100.00
2022-08-07T01:34:17.985Z,100.00
2022-08-07T01:36:52.856Z,100.00
2022-08-07T01:39:39.635Z,100.00
2022-08-07T01:42:37.843Z,99.84
2022-08-07T01:45:05.303Z,100.00
2022-08-07T01:48:19.204Z,99.64
2022-08-07T01:50:30.394Z,98.85
2022-08-07T01:52:59.229Z,99.22
2022-08-07T01:55:29.525Z,98.97
2022-08-07T01:58:27.388Z,100.00
2022-08-07T02:01:10.147Z,100.00
2022-08-07T02:03:51.068Z,99.30
2022-08-07T02:06:31.879Z,99.43
2022-08-07T02:09:03.742Z,100.00
2022-08-07T02:12:03.704Z,98.74
2022-08-07T02:14:40.304Z,99.19
2022-08-07T02:17:09.680Z,98.55
2022-08-07T02:20:04.660Z,96.15
2022-08-07T02:22:26.993Z,98.23
2022-08-07T02:24:57.227Z,97.56
2022-08-07T02:27:34.441Z,98.78
2022-08-07T02:30:03.555Z,99.82
2022-08-07T02:32:36.241Z,99.34
2022-08-07T02:35:09.173Z,98.95
2022-08-07T02:37:43.908Z,98.88
2022-08-07T02:40:30.910Z,99.29
2022-08-07T02:42:59.233Z,99.11
2022-08-07T02:45:58.129Z,97.18
2022-08-07T02:48:15.685Z,95.77
2022-08-07T02:50:44.803Z,95.37
2022-08-07T02:53:27.441Z,94.82
2022-08-07T02:56:02.637Z,94.08
2022-08-07T02:58:33.854Z,93.90
2022-08-07T03:01:03.114Z,93.34
2022-08-07T03:03:49.130Z,91.88
2022-08-07T03:06:25.471Z,90.68
2022-08-07T03:08:58.876Z,88.43
2022-08-07T03:11:28.217Z,88.16
2022-08-07T03:13:57.721Z,88.05
2022-08-07T03:16:30.434Z,86.50
2022-08-07T03:18:59.271Z,85.44
2022-08-07T03:21:26.601Z,86.67
2022-08-07T03:24:20.158Z,87.38
2022-08-07T03:26:51.357Z,85.37
2022-08-07T03:29:29.603Z,85.34
2022-08-07T03:31:56.696Z,85.87
2022-08-07T03:34:27.171Z,84.83
2022-08-07T03:36:55.013Z,85.14
2022-08-07T03:39:59.373Z,85.33
2022-08-07T03:42:13.101Z,84.92
2022-08-07T03:44:40.171Z,86.23
2022-08-07T03:47:14.129Z,85.79
2022-08-07T03:49:51.927Z,86.42
2022-08-07T03:52:22.715Z,86.38
2022-08-07T03:54:55.300Z,87.34
2022-08-07T03:58:17.977Z,86.73
2022-08-07T04:00:14.330Z,86.98
2022-08-07T04:02:47.457Z,86.89
2022-08-07T04:05:16.069Z,86.95
2022-08-07T04:07:48.339Z,86.66
2022-08-07T04:10:18.948Z,86.13
2022-08-07T04:12:48.799Z,87.50
2022-08-07T04:15:17.658Z,86.71
2022-08-07T04:18:32.064Z,86.97
2022-08-07T04:20:31.956Z,86.84
2022-08-07T04:23:06.203Z,86.24
2022-08-07T04:25:39.430Z,86.21
2022-08-07T04:28:08.435Z,85.46
2022-08-07T04:30:43.637Z,85.56
2022-08-07T04:33:24.316Z,84.41
2022-08-07T04:35:53.207Z,85.51
2022-08-07T04:38:20.999Z,84.85
2022-08-07T04:40:52.575Z,85.46
2022-08-07T04:44:09.706Z,84.19
2022-08-07T04:46:25.855Z,84.18
2022-08-07T04:49:25.445Z,84.20
2022-08-07T04:52:14.160Z,84.38
2022-08-07T04:58:10.345Z,83.59
2022-08-07T04:58:42.444Z,83.40
2022-08-07T05:01:13.340Z,83.24
2022-08-07T05:04:07.909Z,82.77
2022-08-07T05:06:51.611Z,83.98
2022-08-07T05:09:45.335Z,82.64
2022-08-07T05:12:27.402Z,83.57
2022-08-07T05:15:23.325Z,82.79
2022-08-07T05:17:56.552Z,82.55
2022-08-07T05:20:29.341Z,82.43
2022-08-07T05:23:02.073Z,82.51
2022-08-07T05:25:54.333Z,82.08
2022-08-07T05:28:22.830Z,83.04
2022-08-07T05:30:52.607Z,82.86
2022-08-07T05:33:21.534Z,83.23
2022-08-07T05:35:51.774Z,83.02
2022-08-07T05:38:58.046Z,83.34
2022-08-07T05:41:14.549Z,82.62
2022-08-07T05:44:08.493Z,82.95
2022-08-07T05:46:37.308Z,82.18
2022-08-07T05:49:12.040Z,81.89
2022-08-07T05:51:40.726Z,83.04
2022-08-07T05:54:29.814Z,82.22
2022-08-07T05:56:57.159Z,82.48
2022-08-07T05:59:26.353Z,82.55
2022-08-07T06:01:57.178Z,81.83
2022-08-07T06:04:30.053Z,81.85
2022-08-07T06:07:03.955Z,81.95
2022-08-07T06:10:04.157Z,81.61
2022-08-07T06:12:21.159Z,81.69
2022-08-07T06:15:05.639Z,81.39
2022-08-07T06:17:38.044Z,81.33
2022-08-07T06:20:06.044Z,81.86
2022-08-07T06:22:42.307Z,81.76
2022-08-07T06:25:28.813Z,80.85
2022-08-07T06:28:04.231Z,80.65
2022-08-07T06:30:37.326Z,79.67
2022-08-07T06:33:09.930Z,80.23
2022-08-07T06:35:47.555Z,79.33
2022-08-07T06:38:30.362Z,79.44
2022-08-07T06:40:59.182Z,78.23
2022-08-07T06:43:27.534Z,78.47
2022-08-07T06:46:06.353Z,77.15
2022-08-07T06:48:38.899Z,71.59
2022-08-07T06:51:11.357Z,74.33
2022-08-07T06:55:29.104Z,73.46
2022-08-07T06:56:48.450Z,72.84
2022-08-07T07:00:17.544Z,71.75
2022-08-07T07:02:14.495Z,71.42
2022-08-07T07:05:00.946Z,70.28
2022-08-07T07:07:59.124Z,70.33
2022-08-07T07:10:14.687Z,70.95
2022-08-07T07:12:53.791Z,70.96
2022-08-07T07:15:36.095Z,71.48
2022-08-07T07:18:14.172Z,71.49
2022-08-07T07:21:04.818Z,70.63
2022-08-07T07:24:10.987Z,69.13
2022-08-07T07:26:36.856Z,68.44
2022-08-07T07:29:56.080Z,61.66
2022-08-07T07:31:56.839Z,60.09
2022-08-07T07:34:30.973Z,60.65
2022-08-07T07:37:05.392Z,59.68
2022-08-07T07:39:54.320Z,59.91
2022-08-07T07:42:32.480Z,56.61
2022-08-07T07:45:05.683Z,54.58
2022-08-07T07:47:42.900Z,52.66
2022-08-07T07:50:34.581Z,51.32
2022-08-07T07:53:20.462Z,48.96
2022-08-07T07:55:58.006Z,52.50
2022-08-07T07:58:36.935Z,50.11
2022-08-07T08:02:01.737Z,54.80
2022-08-07T08:04:10.835Z,54.84
2022-08-07T08:06:50.863Z,52.54
2022-08-07T08:09:20.629Z,52.22
2022-08-07T08:12:01.913Z,53.95
2022-08-07T08:14:34.155Z,49.81
2022-08-07T08:17:32.400Z,48.96
2022-08-07T08:20:17.199Z,49.70
2022-08-07T08:23:03.106Z,50.97
2022-08-07T08:25:54.470Z,46.70
2022-08-07T08:28:37.408Z,48.07
2022-08-07T08:31:13.856Z,47.12
2022-08-07T08:33:49.613Z,47.74
2022-08-07T08:36:29.948Z,46.01
2022-08-07T08:38:59.992Z,47.02
2022-08-07T08:41:57.109Z,48.21
2022-08-07T08:44:44.654Z,47.60
2022-08-07T08:47:52.198Z,46.87
2022-08-07T08:50:39.108Z,47.49
2022-08-07T08:53:06.270Z,45.23
2022-08-07T08:55:53.224Z,44.83
2022-08-07T08:58:34.097Z,42.51
2022-08-07T09:01:15.334Z,43.97
2022-08-07T09:03:52.957Z,44.54
2022-08-07T09:06:35.687Z,44.56
2022-08-07T09:09:36.968Z,45.78
2022-08-07T09:12:37.853Z,43.10
2022-08-07T09:16:21.513Z,46.08
2022-08-07T09:18:13.584Z,45.72
2022-08-07T09:21:01.374Z,43.78
2022-08-07T09:24:33.684Z,45.45
2022-08-07T09:26:53.157Z,47.71
2022-08-07T09:30:06.179Z,46.20
2022-08-07T09:32:40.269Z,45.07
2022-08-07T09:36:01.158Z,45.51
2022-08-07T09:38:10.418Z,44.28
2022-08-07T09:41:36.485Z,44.47
2022-08-07T09:47:25.693Z,43.62
2022-08-07T09:47:59.451Z,40.51
2022-08-07T09:50:45.571Z,41.97
2022-08-07T09:53:15.739Z,42.70
2022-08-07T09:56:03.122Z,45.00
2022-08-07T09:58:34.183Z,43.82
2022-08-07T10:01:51.099Z,44.29
2022-08-07T10:04:33.594Z,45.03
2022-08-07T10:07:24.503Z,43.67
2022-08-07T10:10:07.033Z,43.91
2022-08-07T10:12:53.332Z,43.85
2022-08-07T10:15:44.078Z,42.63
2022-08-07T10:18:19.177Z,40.05
2022-08-07T10:21:20.095Z,41.22
2022-08-07T10:24:22.577Z,42.13
2022-08-07T10:26:59.974Z,44.63
2022-08-07T10:29:51.393Z,44.22
2022-08-07T10:32:36.455Z,42.92
2022-08-07T10:35:25.592Z,42.59
2022-08-07T10:38:21.364Z,42.06
2022-08-07T10:41:07.750Z,43.13
2022-08-07T10:43:48.220Z,42.98
2022-08-07T10:46:30.049Z,44.48
2022-08-07T10:49:13.649Z,43.17
2022-08-07T10:52:01.748Z,43.01
2022-08-07T10:54:53.128Z,45.16
2022-08-07T10:57:56.295Z,44.27
2022-08-07T11:00:39.217Z,45.01
2022-08-07T11:03:19.761Z,44.58
2022-08-07T11:06:11.341Z,45.19
2022-08-07T11:09:11.226Z,44.82
2022-08-07T11:12:01.265Z,44.63
2022-08-07T11:14:44.046Z,45.50
2022-08-07T11:17:43.282Z,46.80
2022-08-07T11:20:20.218Z,48.98
2022-08-07T11:23:09.364Z,48.19
2022-08-07T11:26:13.035Z,46.69
2022-08-07T11:28:53.409Z,46.84
2022-08-07T11:31:41.757Z,46.95
2022-08-07T11:34:31.814Z,47.34
2022-08-07T11:37:05.038Z,44.91
2022-08-07T11:40:03.527Z,44.97
2022-08-07T11:42:37.061Z,45.44
2022-08-07T11:45:37.376Z,44.93
2022-08-07T11:48:31.430Z,44.59
2022-08-07T11:51:40.688Z,44.58
2022-08-07T11:54:54.643Z,47.82
2022-08-07T11:58:00.225Z,47.77
2022-08-07T12:00:36.862Z,48.03
2022-08-07T12:03:46.006Z,48.98
2022-08-07T12:10:08.596Z,49.58
2022-08-07T12:12:46.476Z,48.57
2022-08-07T12:15:35.930Z,48.72
2022-08-07T12:18:30.809Z,48.19
2022-08-07T12:22:36.614Z,48.57
2022-08-07T12:24:38.162Z,48.17
2022-08-07T12:27:18.562Z,48.52
2022-08-07T12:30:01.612Z,46.13
2022-08-07T12:32:37.968Z,47.02
2022-08-07T12:35:09.590Z,45.56
2022-08-07T12:38:11.467Z,48.15
2022-08-07T12:40:50.112Z,46.45
2022-08-07T12:44:02.942Z,48.77
2022-08-07T12:46:26.184Z,46.68
2022-08-07T12:49:25.486Z,46.56
2022-08-07T12:52:14.270Z,46.39
2022-08-07T12:55:05.328Z,46.40
2022-08-07T12:57:59.295Z,47.30
2022-08-07T13:00:35.734Z,48.45
2022-08-07T13:03:56.349Z,45.10
2022-08-07T13:06:29.516Z,44.96
2022-08-07T13:09:00.107Z,44.57
2022-08-07T13:12:02.242Z,47.01
2022-08-07T13:14:52.598Z,46.75
2022-08-07T13:17:40.979Z,46.55
2022-08-07T13:20:30.756Z,45.47
2022-08-07T13:24:02.146Z,44.67
2022-08-07T13:26:18.407Z,44.20
2022-08-07T13:28:57.961Z,44.32
2022-08-07T13:32:23.745Z,45.48
2022-08-07T13:35:03.298Z,47.31
2022-08-07T13:37:58.866Z,45.84
2022-08-07T13:40:36.736Z,47.13
2022-08-07T13:43:12.344Z,45.75
2022-08-07T13:46:12.527Z,45.90
2022-08-07T13:48:34.508Z,46.83
2022-08-07T13:51:28.125Z,46.51
2022-08-07T13:54:00.091Z,47.08
2022-08-07T13:56:36.257Z,46.87
2022-08-07T13:59:24.358Z,46.72
2022-08-07T14:02:03.754Z,46.11
2022-08-07T14:04:35.718Z,44.66
2022-08-07T14:07:09.297Z,45.42
2022-08-07T14:10:12.468Z,45.01
2022-08-07T14:13:02.843Z,44.65
2022-08-07T14:15:39.706Z,43.49
2022-08-07T14:18:29.035Z,44.41
2022-08-07T14:21:20.737Z,44.21
2022-08-07T14:24:03.607Z,44.90
2022-08-07T14:26:50.607Z,45.38
2022-08-07T14:30:06.614Z,45.33
2022-08-07T14:32:12.512Z,46.28
2022-08-07T14:34:47.037Z,45.90
2022-08-07T14:37:17.284Z,45.21
2022-08-07T14:40:16.375Z,46.04
2022-08-07T14:42:33.840Z,45.68
2022-08-07T14:45:21.584Z,45.21
2022-08-07T14:47:51.097Z,46.89
2022-08-07T14:50:20.406Z,47.15
2022-08-07T14:52:50.477Z,46.39
2022-08-07T14:55:18.674Z,47.19
2022-08-07T14:57:58.053Z,46.70
2022-08-07T15:00:29.965Z,47.19
2022-08-07T15:03:19.860Z,48.25
2022-08-07T15:05:54.435Z,48.05
2022-08-07T15:08:33.764Z,47.46
2022-08-07T15:11:08.537Z,47.38
2022-08-07T15:13:41.186Z,47.07
2022-08-07T15:16:14.662Z,46.73
2022-08-07T15:18:48.548Z,46.09
2022-08-07T15:21:58.772Z,45.71
2022-08-07T15:25:15.838Z,46.63
2022-08-07T15:27:06.123Z,47.70
2022-08-07T15:30:04.384Z,46.70
2022-08-07T15:36:00.598Z,46.42
2022-08-07T15:38:30.268Z,47.45
2022-08-07T15:41:22.726Z,47.43
2022-08-07T15:43:53.477Z,47.66
2022-08-07T15:46:32.508Z,48.07
2022-08-07T15:49:15.260Z,48.06
2022-08-07T15:54:30.804Z,49.80
2022-08-07T15:57:04.991Z,48.89
2022-08-07T15:59:39.603Z,50.19
2022-08-07T16:02:27.375Z,49.23
2022-08-07T16:05:15.167Z,49.73
2022-08-07T16:08:32.990Z,50.57
2022-08-07T16:10:36.592Z,51.38
2022-08-07T16:13:39.533Z,49.90
2022-08-07T16:16:47.900Z,50.41
2022-08-07T16:19:15.928Z,50.30
2022-08-07T16:22:37.697Z,50.70
2022-08-07T16:25:55.506Z,49.92
2022-08-07T16:29:18.500Z,50.46
2022-08-07T16:32:02.651Z,50.74
2022-08-07T16:34:48.076Z,50.62
2022-08-07T16:38:03.786Z,51.17
2022-08-07T16:40:33.844Z,51.17
2022-08-07T16:43:23.410Z,51.85
2022-08-07T16:47:09.545Z,52.14
2022-08-07T16:50:20.119Z,51.86
2022-08-07T16:54:02.567Z,53.35
2022-08-07T16:56:49.784Z,52.93
2022-08-07T16:59:58.125Z,53.12
2022-08-07T17:03:06.003Z,53.08
2022-08-07T17:06:30.245Z,52.76
2022-08-07T17:09:09.215Z,53.04
2022-08-07T17:12:05.196Z,54.23
2022-08-07T17:14:56.345Z,53.85
2022-08-07T17:17:46.446Z,53.14
2022-08-07T17:20:35.518Z,54.15
2022-08-07T17:23:32.521Z,54.24
2022-08-07T17:26:22.938Z,53.72
2022-08-07T17:29:04.487Z,53.76
2022-08-07T17:32:02.556Z,54.63
2022-08-07T17:38:33.440Z,54.97
2022-08-07T17:42:04.500Z,55.36
2022-08-07T17:44:33.308Z,56.08
2022-08-07T17:58:31.619Z,57.54
2022-08-07T18:01:02.759Z,58.04
2022-08-07T18:04:07.509Z,57.53
2022-08-07T18:07:20.063Z,58.63
2022-08-07T18:10:07.426Z,57.69
2022-08-07T18:12:58.679Z,58.13
2022-08-07T18:15:33.042Z,58.16
2022-08-07T18:18:46.131Z,58.71
2022-08-07T18:21:38.336Z,58.41
2022-08-07T18:24:33.571Z,58.39
2022-08-07T18:27:39.292Z,59.02
2022-08-07T18:30:31.920Z,59.28
2022-08-07T18:33:17.925Z,60.14
2022-08-07T18:36:08.139Z,60.42
2022-08-07T18:38:58.180Z,61.04
2022-08-07T18:41:54.148Z,61.62
2022-08-07T18:44:29.283Z,62.82
2022-08-07T18:47:08.017Z,63.25
2022-08-07T18:50:37.991Z,64.05
2022-08-07T18:53:12.717Z,64.98
2022-08-07T18:56:08.447Z,65.32
2022-08-07T18:59:47.208Z,66.19
2022-08-07T19:02:19.091Z,66.14
2022-08-07T19:05:10.119Z,65.36
2022-08-07T19:08:18.680Z,65.64
2022-08-07T19:11:35.244Z,66.15
2022-08-07T19:14:17.053Z,66.62
2022-08-07T19:17:04.802Z,66.70
2022-08-07T19:19:48.742Z,66.98
2022-08-07T19:22:30.821Z,67.21
2022-08-07T19:24:58.478Z,67.98
2022-08-07T19:29:02.950Z,67.80
2022-08-07T19:31:06.199Z,68.51
2022-08-07T19:33:13.144Z,68.07
2022-08-07T19:35:46.234Z,67.89
2022-08-07T19:38:17.667Z,67.66
2022-08-07T19:40:49.535Z,67.04
2022-08-07T19:43:44.008Z,67.70
2022-08-07T19:47:00.998Z,67.67
2022-08-07T19:49:58.346Z,67.57
2022-08-07T19:52:22.618Z,67.00
2022-08-07T19:54:56.622Z,67.11
2022-08-07T19:58:01.398Z,67.95
2022-08-07T20:00:28.009Z,70.32
2022-08-07T20:03:06.022Z,71.10
2022-08-07T20:06:01.995Z,71.27
2022-08-07T20:08:33.955Z,69.01
2022-08-07T20:11:10.127Z,68.24
2022-08-07T20:13:55.311Z,69.91
2022-08-07T20:16:34.747Z,71.90
2022-08-07T20:19:10.631Z,72.42
2022-08-07T20:21:42.022Z,71.88
2022-08-07T20:24:35.757Z,72.57
2022-08-07T20:27:09.114Z,71.92
2022-08-07T20:29:57.549Z,72.41
2022-08-07T20:32:43.010Z,72.51
2022-08-07T20:35:17.802Z,72.88
2022-08-07T20:37:55.666Z,73.30
2022-08-07T20:40:31.525Z,74.17
2022-08-07T20:43:02.221Z,75.44
2022-08-07T20:46:24.233Z,76.20
2022-08-07T20:48:28.564Z,77.07
2022-08-07T20:50:59.473Z,77.64
2022-08-07T20:54:04.296Z,77.28
2022-08-07T20:56:16.052Z,77.12
2022-08-07T20:58:47.979Z,75.00
2022-08-07T21:01:19.947Z,75.86
2022-08-07T21:04:13.112Z,76.44
2022-08-07T21:06:42.424Z,77.47
2022-08-07T21:09:16.374Z,77.04
2022-08-07T21:11:50.997Z,74.69
2022-08-07T21:14:33.985Z,76.02
2022-08-07T21:18:01.819Z,76.28
2022-08-07T21:20:05.052Z,76.54
2022-08-07T21:22:54.711Z,75.21
2022-08-07T21:26:01.489Z,75.84
2022-08-07T21:28:49.900Z,74.96
2022-08-07T21:32:10.757Z,74.56
2022-08-07T21:34:48.552Z,74.56
2022-08-07T21:37:25.805Z,74.44
2022-08-07T21:40:06.278Z,76.20
2022-08-07T21:42:48.504Z,76.44
2022-08-07T21:46:03.385Z,77.58
2022-08-07T21:48:29.075Z,78.15
2022-08-07T21:51:32.228Z,77.09
2022-08-07T21:54:27.586Z,78.36
2022-08-07T21:57:30.934Z,78.84
2022-08-07T22:00:21.999Z,81.53
2022-08-07T22:03:03.630Z,80.00
2022-08-07T22:05:45.409Z,80.37
2022-08-07T22:08:14.345Z,80.63
2022-08-07T22:10:45.881Z,79.86
2022-08-07T22:13:14.398Z,80.27
2022-08-07T22:16:42.750Z,79.71
2022-08-07T22:18:54.379Z,77.35
2022-08-07T22:21:26.192Z,77.06
2022-08-07T22:24:17.521Z,76.67
2022-08-07T22:26:56.652Z,76.64
2022-08-07T22:29:33.773Z,76.61
2022-08-07T22:32:06.407Z,76.81
2022-08-07T22:34:53.485Z,77.26
2022-08-07T22:38:03.155Z,77.63
2022-08-07T22:40:59.834Z,77.67
2022-08-07T22:43:40.858Z,77.69
2022-08-07T22:47:03.978Z,77.69
2022-08-07T22:49:37.882Z,78.42
2022-08-07T22:52:37.446Z,78.73
2022-08-07T22:55:22.708Z,78.85
2022-08-07T22:57:55.816Z,79.60
2022-08-07T23:00:31.299Z,79.74
2022-08-07T23:03:16.289Z,79.82
2022-08-07T23:06:09.741Z,79.72
2022-08-07T23:09:34.589Z,80.27
2022-08-07T23:12:12.369Z,80.92
2022-08-07T23:16:06.482Z,82.24
2022-08-07T23:18:32.075Z,82.18
2022-08-07T23:21:17.396Z,82.35
2022-08-07T23:24:06.120Z,81.88
2022-08-07T23:26:50.579Z,82.18
2022-08-07T23:30:36.002Z,83.23
2022-08-07T23:34:34.503Z,83.83
2022-08-07T23:37:23.632Z,83.75
2022-08-07T23:40:20.658Z,83.63
2022-08-07T23:43:00.798Z,84.26
2022-08-07T23:46:03.229Z,85.13
2022-08-07T23:48:52.557Z,84.33
2022-08-07T23:52:58.763Z,83.83
2022-08-07T23:54:45.884Z,84.68
2022-08-07T23:57:27.690Z,84.58
